createdAt,value
2023-03-05T00:01:41.264Z,95038.28
2023-03-05T00:04:11.956Z,95033.22
2023-03-05T00:06:39.592Z,95030.41
2023-03-05T00:09:07.301Z,95030.81
2023-03-05T00:11:36.383Z,95032.22
2023-03-05T00:14:05.268Z,95032.44
2023-03-05T00:16:32.777Z,95031.50
2023-03-05T00:19:01.133Z,95026.28
2023-03-05T00:21:30.422Z,95030.69
2023-03-05T00:24:07.039Z,95029.06
2023-03-05T00:26:41.811Z,95023.69
2023-03-05T00:29:12.421Z,95023.06
2023-03-05T00:31:41.205Z,95019.47
2023-03-05T00:34:11.636Z,95018.47
2023-03-05T00:36:40.486Z,95018.28
2023-03-05T00:39:08.938Z,95017.09
2023-03-05T00:41:38.209Z,95009.88
2023-03-05T00:44:07.344Z,94996.03
2023-03-05T00:46:35.782Z,94999.63
2023-03-05T00:49:03.695Z,95001.03
2023-03-05T00:51:32.063Z,95006.28
2023-03-05T00:53:59.219Z,94994.69
2023-03-05T00:56:28.512Z,94996.47
2023-03-05T00:58:57.174Z,94988.25
2023-03-05T01:01:24.765Z,94985.41
2023-03-05T01:03:58.647Z,94987.84
2023-03-05T01:06:25.591Z,94983.25
2023-03-05T01:08:52.418Z,94983.84
2023-03-05T01:11:19.396Z,94979.84
2023-03-05T01:13:46.437Z,94971.41
2023-03-05T01:16:15.151Z,94970.44
2023-03-05T01:18:42.228Z,94965.84
2023-03-05T01:21:09.830Z,94963.63
2023-03-05T01:23:37.814Z,94954.22
2023-03-05T01:26:05.642Z,94960.25
2023-03-05T01:28:33.976Z,94955.22
2023-03-05T01:31:00.746Z,94955.22
2023-03-05T01:33:29.232Z,94956.84
2023-03-05T01:38:37.232Z,94952.47
2023-03-05T01:41:04.345Z,94951.25
2023-03-05T01:43:31.772Z,94946.03
2023-03-05T01:46:24.376Z,94942.25
2023-03-05T01:48:59.447Z,94942.25
2023-03-05T01:51:31.707Z,94932.22
2023-03-05T01:54:00.582Z,94932.00
2023-03-05T01:56:31.006Z,94928.19
2023-03-05T01:59:03.685Z,94925.41
2023-03-05T02:01:39.973Z,94925.59
2023-03-05T02:04:10.055Z,94925.78
2023-03-05T02:06:38.252Z,94922.59
2023-03-05T02:09:08.840Z,94916.75
2023-03-05T02:11:36.589Z,94915.16
2023-03-05T02:14:05.164Z,94915.53
2023-03-05T02:16:40.482Z,94911.53
2023-03-05T02:19:11.192Z,94904.31
2023-03-05T02:21:43.062Z,94908.16
2023-03-05T02:24:15.748Z,94910.75
2023-03-05T02:26:45.325Z,94905.31
2023-03-05T02:32:00.371Z,94903.72
2023-03-05T02:34:27.361Z,94900.75
2023-03-05T02:36:56.752Z,94891.13
2023-03-05T02:39:25.022Z,94896.31
2023-03-05T02:41:52.488Z,94893.72
2023-03-05T02:44:19.568Z,94893.28
2023-03-05T02:46:47.470Z,94887.09
2023-03-05T02:49:14.899Z,94883.69
2023-03-05T02:51:41.850Z,94867.47
2023-03-05T02:54:11.634Z,94870.47
2023-03-05T02:56:40.333Z,94867.25
2023-03-05T02:59:07.104Z,94862.84
2023-03-05T03:01:34.392Z,94857.44
2023-03-05T03:04:01.903Z,94857.44
2023-03-05T03:06:28.906Z,94856.03
2023-03-05T03:08:59.761Z,94848.81
2023-03-05T03:11:35.834Z,94844.81
2023-03-05T03:14:02.600Z,94838.59
2023-03-05T03:16:29.829Z,94839.00
2023-03-05T03:18:56.631Z,94835.00
2023-03-05T03:21:25.669Z,94837.38
2023-03-05T03:23:53.781Z,94837.19
2023-03-05T03:26:25.710Z,94839.38
2023-03-05T03:28:54.306Z,94835.97
2023-03-05T03:31:23.336Z,94835.19
2023-03-05T03:33:51.714Z,94831.16
2023-03-05T03:36:20.477Z,94821.16
2023-03-05T03:38:47.419Z,94823.94
2023-03-05T03:41:21.688Z,94824.38
2023-03-05T03:43:50.783Z,94819.75
2023-03-05T03:46:19.430Z,94816.53
2023-03-05T03:48:52.097Z,94815.34
2023-03-05T03:51:18.900Z,94815.94
2023-03-05T03:53:45.990Z,94807.31
2023-03-05T03:56:13.044Z,94817.34
2023-03-05T03:58:39.711Z,94808.94
2023-03-05T04:01:06.432Z,94809.91
2023-03-05T04:03:35.265Z,94811.72
2023-03-05T04:06:02.343Z,94823.34
2023-03-05T04:08:29.215Z,94817.91
2023-03-05T04:10:56.221Z,94815.13
2023-03-05T04:13:23.360Z,94814.50
2023-03-05T04:15:51.267Z,94805.25
2023-03-05T04:18:22.266Z,94801.66
2023-03-05T04:20:50.590Z,94794.41
2023-03-05T04:23:17.872Z,94799.63
2023-03-05T04:25:44.583Z,94799.25
2023-03-05T04:28:11.418Z,94797.66
2023-03-05T04:30:40.015Z,94789.44
2023-03-05T04:33:08.407Z,94783.19
2023-03-05T04:35:35.896Z,94790.44
2023-03-05T04:38:07.618Z,94781.59
2023-03-05T04:40:35.300Z,94778.78
2023-03-05T04:43:02.182Z,94782.00
2023-03-05T04:45:29.006Z,94775.97
2023-03-05T04:47:56.489Z,94781.00
2023-03-05T04:50:24.094Z,94775.56
2023-03-05T04:52:51.624Z,94775.16
2023-03-05T04:55:20.125Z,94774.97
2023-03-05T04:57:46.938Z,94771.34
2023-03-05T05:00:17.293Z,94771.16
2023-03-05T05:02:46.197Z,94765.94
2023-03-05T05:05:15.282Z,94760.09
2023-03-05T05:07:42.629Z,94754.91
2023-03-05T05:10:11.710Z,94754.09
2023-03-05T05:12:40.224Z,94760.91
2023-03-05T05:15:09.017Z,94755.13
2023-03-05T05:17:36.150Z,94757.13
2023-03-05T05:20:06.593Z,94756.34
2023-03-05T05:22:34.504Z,94757.91
2023-03-05T05:25:02.260Z,94753.50
2023-03-05T05:27:28.994Z,94753.09
2023-03-05T05:29:57.328Z,94752.69
2023-03-05T05:32:24.938Z,94755.31
2023-03-05T05:34:54.704Z,94761.50
2023-03-05T05:37:21.880Z,94762.31
2023-03-05T05:39:50.355Z,94758.91
2023-03-05T05:42:17.999Z,94764.72
2023-03-05T05:44:45.079Z,94759.50
2023-03-05T05:47:14.563Z,94770.72
2023-03-05T05:49:41.664Z,94766.53
2023-03-05T05:52:09.588Z,94763.31
2023-03-05T05:54:36.469Z,94760.72
2023-03-05T05:57:03.778Z,94762.09
2023-03-05T05:59:30.776Z,94761.09
2023-03-05T06:01:57.507Z,94765.31
2023-03-05T06:04:25.769Z,94772.91
2023-03-05T06:06:52.759Z,94770.13
2023-03-05T06:09:19.592Z,94764.31
2023-03-05T06:11:46.528Z,94764.09
2023-03-05T06:14:13.704Z,94760.47
2023-03-05T06:16:40.559Z,94762.28
2023-03-05T06:19:09.348Z,94769.31
2023-03-05T06:21:37.446Z,94760.91
2023-03-05T06:24:05.420Z,94769.56
2023-03-05T06:26:32.982Z,94761.75
2023-03-05T06:29:00.187Z,94755.91
2023-03-05T06:31:28.995Z,94758.34
2023-03-05T06:33:58.179Z,94769.19
2023-03-05T06:36:25.940Z,94760.19
2023-03-05T06:38:55.272Z,94758.78
2023-03-05T06:41:24.787Z,94755.34
2023-03-05T06:43:52.493Z,94753.75
2023-03-05T06:46:23.312Z,94753.38
2023-03-05T06:48:51.729Z,94752.97
2023-03-05T06:51:21.249Z,94750.97
2023-03-05T06:53:49.822Z,94757.59
2023-03-05T06:56:20.570Z,94751.94
2023-03-05T06:58:49.955Z,94753.16
2023-03-05T07:01:18.350Z,94751.72
2023-03-05T07:03:49.873Z,94750.72
2023-03-05T07:06:17.750Z,94759.72
2023-03-05T07:08:48.533Z,94754.09
2023-03-05T07:11:18.117Z,94743.66
2023-03-05T07:13:51.046Z,94755.25
2023-03-05T07:16:20.017Z,94749.03
2023-03-05T07:18:56.400Z,94765.50
2023-03-05T07:21:25.256Z,94758.25
2023-03-05T07:23:56.211Z,94755.25
2023-03-05T07:26:25.473Z,94754.84
2023-03-05T07:29:00.286Z,94752.22
2023-03-05T07:31:45.973Z,94753.81
2023-03-05T07:34:17.816Z,94746.78
2023-03-05T08:57:52.871Z,94700.72
